createdAt,value
2022-08-23T00:00:44.314Z,98458.16
2022-08-23T00:03:47.178Z,98454.97
2022-08-23T00:06:49.751Z,98449.69
2022-08-23T00:09:51.859Z,98439.78
2022-08-23T00:12:54.038Z,98445.53
2022-08-23T00:15:56.214Z,98449.38
2022-08-23T00:18:58.382Z,98452.44
2022-08-23T00:22:00.513Z,98456.69
2022-08-23T00:25:02.666Z,98454.94
2022-08-23T00:28:04.910Z,98460.63
2022-08-23T00:31:14.773Z,98452.06
2022-08-23T00:34:17.220Z,98462.59
2022-08-23T00:37:19.796Z,98463.56
2022-08-23T00:40:21.999Z,98453.59
2022-08-23T00:43:55.739Z,98453.94
2022-08-23T00:47:16.569Z,98459.19
2022-08-23T00:50:29.804Z,98442.47
2022-08-23T00:53:34.853Z,98441.31
2022-08-23T00:56:37.120Z,98452.06
2022-08-23T00:59:39.430Z,98443.75
2022-08-23T01:02:42.718Z,98440.28
2022-08-23T01:06:07.590Z,98440.59
2022-08-23T01:09:13.763Z,98436.19
2022-08-23T01:12:32.713Z,98438.94
2022-08-23T01:15:41.703Z,98431.84
2022-08-23T01:18:43.916Z,98424.13
2022-08-23T01:21:53.127Z,98430.00
2022-08-23T01:25:06.865Z,98422.84
2022-08-23T01:28:13.683Z,98422.56
2022-08-23T01:31:16.080Z,98428.38
2022-08-23T01:34:18.364Z,98430.00
2022-08-23T01:37:21.047Z,98426.00
2022-08-23T01:40:24.158Z,98426.50
2022-08-23T01:43:26.635Z,98424.66
2022-08-23T01:46:29.854Z,98428.34
2022-08-23T01:49:33.310Z,98426.91
2022-08-23T01:52:36.893Z,98436.09
2022-08-23T01:55:41.030Z,98436.69
2022-08-23T01:58:43.164Z,98429.47
2022-08-23T02:01:47.644Z,98440.22
2022-08-23T02:04:50.474Z,98437.50
2022-08-23T02:07:53.027Z,98438.09
2022-08-23T02:10:55.183Z,98438.09
2022-08-23T02:13:58.986Z,98438.38
2022-08-23T02:17:07.206Z,98439.97
2022-08-23T02:20:09.750Z,98437.56
2022-08-23T02:23:12.118Z,98433.31
2022-08-23T02:26:14.698Z,98434.91
2022-08-23T02:29:21.446Z,98436.25
2022-08-23T02:32:27.109Z,98433.84
2022-08-23T02:35:29.930Z,98424.78
2022-08-23T02:38:32.078Z,98414.59
2022-08-23T02:41:36.191Z,98418.63
2022-08-23T02:44:38.570Z,98421.53
2022-08-23T02:47:41.433Z,98413.25
2022-08-23T02:50:50.474Z,98423.91
2022-08-23T02:53:53.774Z,98420.16
2022-08-23T02:56:58.119Z,98413.00
2022-08-23T03:00:00.201Z,98426.84
2022-08-23T03:03:02.318Z,98420.69
2022-08-23T03:06:24.505Z,98422.81
2022-08-23T03:09:27.084Z,98412.69
2022-08-23T03:12:29.150Z,98427.75
2022-08-23T03:15:31.988Z,98414.78
2022-08-23T03:18:37.859Z,98426.63
2022-08-23T03:21:40.043Z,98426.56
2022-08-23T03:24:46.753Z,98438.69
2022-08-23T03:27:49.122Z,98450.44
2022-08-23T03:30:51.603Z,98454.31
2022-08-23T03:33:53.954Z,98448.81
2022-08-23T03:36:56.339Z,98448.97
2022-08-23T03:39:58.947Z,98449.41
2022-08-23T03:43:01.414Z,98452.56
2022-08-23T03:46:05.933Z,98451.81
2022-08-23T03:49:09.290Z,98452.31
2022-08-23T03:52:20.754Z,98438.16
2022-08-23T03:55:23.047Z,98429.47
2022-08-23T03:58:29.485Z,98432.75
2022-08-23T04:01:31.603Z,98426.03
2022-08-23T04:04:34.271Z,98427.25
2022-08-23T04:07:51.394Z,98437.53
2022-08-23T04:10:56.586Z,98434.44
2022-08-23T04:13:59.307Z,98438.38
2022-08-23T04:17:01.536Z,98439.25
2022-08-23T04:20:05.251Z,98439.09
2022-08-23T04:23:09.840Z,98435.06
2022-08-23T04:26:25.164Z,98435.06
2022-08-23T04:29:34.506Z,98423.53
2022-08-23T04:32:37.707Z,98434.91
2022-08-23T04:35:41.495Z,98436.56
2022-08-23T04:38:44.651Z,98442.53
2022-08-23T04:42:08.809Z,98438.34
2022-08-23T04:45:14.213Z,98447.28
2022-08-23T04:48:20.119Z,98444.53
2022-08-23T04:51:24.558Z,98452.00
2022-08-23T04:54:27.009Z,98457.09
2022-08-23T04:57:57.150Z,98451.75
2022-08-23T05:01:07.829Z,98453.16
2022-08-23T05:04:10.768Z,98447.03
2022-08-23T05:07:15.599Z,98447.50
2022-08-23T05:10:18.490Z,98457.53
2022-08-23T05:13:24.150Z,98454.19
2022-08-23T05:16:26.479Z,98448.78
2022-08-23T05:19:44.191Z,98450.78
2022-08-23T05:22:49.975Z,98450.25
2022-08-23T05:25:55.088Z,98445.13
2022-08-23T05:29:04.094Z,98450.16
2022-08-23T05:32:11.970Z,98450.78
2022-08-23T05:35:14.284Z,98464.31
2022-08-23T05:38:20.934Z,98456.41
2022-08-23T05:41:27.214Z,98456.84
2022-08-23T05:44:42.019Z,98458.38
2022-08-23T05:47:46.454Z,98468.34
2022-08-23T05:51:14.459Z,98476.38
2022-08-23T05:54:17.155Z,98473.06
2022-08-23T05:57:23.665Z,98482.91
2022-08-23T06:00:37.229Z,98486.94
2022-08-23T06:03:43.076Z,98484.47
2022-08-23T06:06:45.332Z,98491.75
2022-08-23T06:09:47.563Z,98501.00
2022-08-23T06:12:49.855Z,98501.13
2022-08-23T06:15:51.952Z,98501.38
2022-08-23T06:18:54.999Z,98501.94
2022-08-23T06:22:15.482Z,98491.16
2022-08-23T06:25:18.011Z,98500.31
2022-08-23T06:28:29.328Z,98494.63
2022-08-23T06:31:47.730Z,98496.47
2022-08-23T06:35:31.397Z,98496.25
2022-08-23T06:38:47.439Z,98495.41
2022-08-23T06:42:36.388Z,98494.25
2022-08-23T06:45:37.727Z,98493.28
2022-08-23T06:48:40.497Z,98485.81
2022-08-23T06:51:46.008Z,98485.81
2022-08-23T06:54:53.272Z,98470.72
2022-08-23T06:58:18.865Z,98475.84
2022-08-23T07:01:56.813Z,98488.34
2022-08-23T07:05:21.722Z,98483.59
2022-08-23T07:08:46.982Z,98492.03
2022-08-23T07:11:49.300Z,98495.16
2022-08-23T07:14:51.443Z,98498.78
2022-08-23T07:17:54.035Z,98495.16
2022-08-23T07:20:58.732Z,98502.66
2022-08-23T07:24:01.259Z,98510.81
2022-08-23T07:27:08.637Z,98513.09
2022-08-23T07:30:17.354Z,98520.84
2022-08-23T07:33:22.592Z,98515.41
2022-08-23T07:36:42.906Z,98522.13
2022-08-23T07:39:46.035Z,98524.16
2022-08-23T07:42:48.657Z,98533.88
2022-08-23T07:45:51.692Z,98520.34
2022-08-23T07:48:55.212Z,98517.22
2022-08-23T07:52:18.934Z,98515.28
2022-08-23T07:55:21.417Z,98512.78
2022-08-23T07:58:56.049Z,98509.56
2022-08-23T08:02:08.870Z,98516.22
2022-08-23T08:05:11.826Z,98515.59
2022-08-23T08:08:14.739Z,98516.59
2022-08-23T08:11:20.073Z,98517.75
2022-08-23T08:14:25.144Z,98514.91
2022-08-23T08:17:31.004Z,98515.44
2022-08-23T08:20:49.354Z,98523.94
2022-08-23T08:24:13.519Z,98528.59
2022-08-23T08:27:22.188Z,98532.06
2022-08-23T08:30:24.339Z,98537.34
2022-08-23T08:33:30.707Z,98535.88
2022-08-23T08:36:43.959Z,98530.66
2022-08-23T08:39:52.256Z,98535.03
2022-08-23T08:43:20.593Z,98534.31
2022-08-23T08:46:45.336Z,98530.44
2022-08-23T08:50:05.710Z,98542.06
2022-08-23T08:53:16.320Z,98540.03
2022-08-23T08:56:38.918Z,98529.13
2022-08-23T09:00:25.982Z,98542.81
2022-08-23T09:03:32.807Z,98539.25
2022-08-23T09:06:55.047Z,98539.84
2022-08-23T09:10:43.478Z,98534.72
2022-08-23T09:14:01.262Z,98539.25
2022-08-23T09:17:50.839Z,98537.28
2022-08-23T09:20:55.023Z,98542.06
2022-08-23T09:24:01.015Z,98534.03
2022-08-23T09:27:23.382Z,98530.66
2022-08-23T09:30:55.408Z,98530.13
2022-08-23T09:33:59.511Z,98539.78
2022-08-23T09:37:23.349Z,98536.69
2022-08-23T09:40:38.987Z,98544.38
2022-08-23T09:43:48.220Z,98539.00
2022-08-23T09:46:54.455Z,98531.03
2022-08-23T09:49:56.771Z,98523.94
2022-08-23T09:53:29.119Z,98523.53
2022-08-23T09:56:41.525Z,98511.94
2022-08-23T09:59:47.959Z,98509.88
2022-08-23T10:02:58.071Z,98520.50
2022-08-23T10:06:03.783Z,98522.78
2022-08-23T10:09:09.851Z,98528.63
2022-08-23T10:12:15.423Z,98520.50
2022-08-23T10:15:18.818Z,98526.69
2022-08-23T10:18:51.269Z,98525.22
2022-08-23T10:22:23.849Z,98507.97
2022-08-23T10:25:58.765Z,98509.91
2022-08-23T10:29:41.046Z,98495.19
2022-08-23T10:32:57.217Z,98519.06
2022-08-23T10:36:16.761Z,98516.53
2022-08-23T10:39:30.064Z,98515.84
2022-08-23T10:43:07.550Z,98506.81
2022-08-23T10:46:10.809Z,98497.09
2022-08-23T10:49:13.168Z,98502.03
2022-08-23T10:52:39.126Z,98498.00
2022-08-23T10:56:07.583Z,98501.03
2022-08-23T10:59:20.844Z,98503.34
2022-08-23T11:02:48.817Z,98503.72
2022-08-23T11:06:37.163Z,98513.44
2022-08-23T11:09:58.345Z,98508.47
2022-08-23T11:13:20.838Z,98509.22
2022-08-23T11:16:31.158Z,98509.34
2022-08-23T11:19:58.322Z,98513.00
2022-08-23T11:23:04.904Z,98517.03
2022-08-23T11:26:11.505Z,98517.47
2022-08-23T11:29:22.471Z,98521.97
2022-08-23T11:32:39.007Z,98513.94
2022-08-23T11:36:09.264Z,98513.81
2022-08-23T11:39:15.784Z,98509.84
2022-08-23T11:42:39.782Z,98516.50
2022-08-23T11:45:46.747Z,98513.00
2022-08-23T11:49:30.146Z,98522.03
2022-08-23T11:52:52.371Z,98510.72
2022-08-23T11:56:12.952Z,98501.56
2022-08-23T11:59:49.271Z,98519.66
2022-08-23T12:03:02.584Z,98513.53
2022-08-23T12:06:09.815Z,98520.03
2022-08-23T12:09:21.093Z,98515.69
2022-08-23T12:12:37.640Z,98520.97
2022-08-23T12:16:16.637Z,98524.13
2022-08-23T12:19:25.239Z,98528.94
2022-08-23T12:22:52.845Z,98543.56
2022-08-23T12:26:09.578Z,98545.59
2022-08-23T12:29:44.915Z,98557.28
2022-08-23T12:33:29.050Z,98566.38
2022-08-23T12:36:58.010Z,98541.22
2022-08-23T12:40:02.342Z,98541.66
2022-08-23T12:43:16.742Z,98541.34
2022-08-23T12:46:42.400Z,98545.53
2022-08-23T12:50:00.406Z,98543.38
2022-08-23T12:53:10.323Z,98544.44
2022-08-23T12:56:32.283Z,98535.97
2022-08-23T13:00:16.407Z,98541.94
2022-08-23T13:03:34.344Z,98533.56
2022-08-23T13:06:47.815Z,98533.19
2022-08-23T13:09:53.210Z,98536.66
2022-08-23T13:12:56.154Z,98534.44
2022-08-23T13:16:00.618Z,98533.56
2022-08-23T13:19:33.639Z,98524.88
2022-08-23T13:22:40.185Z,98520.06
2022-08-23T13:25:43.025Z,98519.34
2022-08-23T13:29:12.055Z,98523.06
2022-08-23T13:32:33.561Z,98512.03
2022-08-23T13:35:46.987Z,98522.31
2022-08-23T13:38:49.627Z,98528.41
2022-08-23T13:41:51.887Z,98535.41
2022-08-23T13:44:54.880Z,98531.72
2022-08-23T13:48:39.558Z,98530.78
2022-08-23T13:52:18.346Z,98510.22
2022-08-23T13:55:22.275Z,98518.69
2022-08-23T13:58:31.120Z,98506.63
2022-08-23T14:01:33.244Z,98507.56
2022-08-23T14:04:35.428Z,98510.22
2022-08-23T14:07:37.580Z,98507.59
2022-08-23T14:10:39.858Z,98506.84
2022-08-23T14:13:43.669Z,98504.47
2022-08-23T14:16:45.961Z,98514.44
2022-08-23T14:20:32.848Z,98510.94
2022-08-23T14:23:12.043Z,98516.63
2022-08-23T14:26:17.757Z,98514.03
2022-08-23T14:29:22.499Z,98505.97
2022-08-23T14:32:25.573Z,98493.00
2022-08-23T14:35:28.015Z,98491.78
2022-08-23T14:38:30.160Z,98492.66
2022-08-23T14:41:32.320Z,98491.34
2022-08-23T14:44:36.305Z,98491.03
2022-08-23T14:47:38.716Z,98494.16
2022-08-23T14:50:41.311Z,98492.00
2022-08-23T14:53:43.455Z,98496.69
2022-08-23T14:56:45.772Z,98491.91
2022-08-23T14:59:47.937Z,98490.47
2022-08-23T15:02:50.300Z,98496.75
2022-08-23T15:05:53.211Z,98496.88
2022-08-23T15:08:55.421Z,98496.88
2022-08-23T15:15:21.823Z,98506.53
2022-08-23T15:18:24.330Z,98503.44
2022-08-23T15:21:27.079Z,98512.00
2022-08-23T15:24:30.646Z,98512.00
2022-08-23T15:27:32.774Z,98514.53
2022-08-23T15:30:35.121Z,98516.94
2022-08-23T15:33:37.351Z,98507.94
2022-08-23T15:36:41.519Z,98514.75
2022-08-23T15:39:44.055Z,98516.94
2022-08-23T15:42:46.349Z,98514.13
2022-08-23T15:45:48.749Z,98522.72
2022-08-23T15:49:06.158Z,98528.91
2022-08-23T15:52:08.311Z,98527.63
2022-08-23T15:55:10.923Z,98531.16
2022-08-23T15:58:20.280Z,98529.88
2022-08-23T16:01:24.962Z,98521.66
2022-08-23T16:04:32.572Z,98524.66
2022-08-23T16:07:38.701Z,98541.34
2022-08-23T16:10:40.901Z,98540.06
2022-08-23T16:13:44.662Z,98541.69
2022-08-23T16:16:47.020Z,98538.50
2022-08-23T16:19:49.671Z,98543.69
2022-08-23T16:22:52.386Z,98536.72
2022-08-23T16:25:59.129Z,98532.88
2022-08-23T16:29:06.818Z,98535.88
2022-08-23T16:32:08.983Z,98535.53
2022-08-23T16:35:11.242Z,98523.63
2022-08-23T16:38:13.359Z,98530.78
2022-08-23T16:41:15.718Z,98534.91
2022-08-23T16:44:17.851Z,98538.06
2022-08-23T16:47:20.074Z,98536.06
2022-08-23T16:50:22.287Z,98531.44
2022-08-23T16:53:26.920Z,98533.84
2022-08-23T16:56:29.832Z,98533.69
2022-08-23T16:59:32.096Z,98527.38
2022-08-23T17:02:36.520Z,98524.84
2022-08-23T17:05:38.978Z,98517.19
2022-08-23T17:08:41.192Z,98528.44
2022-08-23T17:11:43.869Z,98530.66
2022-08-23T17:14:46.395Z,98527.22
2022-08-23T17:17:49.367Z,98531.97
2022-08-23T17:20:51.563Z,98534.38
2022-08-23T17:23:53.780Z,98544.53
2022-08-23T17:26:55.903Z,98547.56
2022-08-23T17:29:58.070Z,98556.72
2022-08-23T17:33:00.302Z,98557.31
2022-08-23T17:36:03.140Z,98547.94
2022-08-23T17:39:08.960Z,98551.88
2022-08-23T17:42:11.075Z,98566.56
2022-08-23T17:45:13.856Z,98564.44
2022-08-23T17:48:17.633Z,98572.81
2022-08-23T17:51:19.790Z,98568.69
2022-08-23T17:54:21.902Z,98567.84
2022-08-23T17:57:24.144Z,98564.84
2022-08-23T18:00:26.742Z,98563.81
2022-08-23T18:03:33.782Z,98564.75
2022-08-23T18:06:36.519Z,98562.28
2022-08-23T18:09:45.089Z,98565.81
2022-08-23T18:12:52.963Z,98576.78
2022-08-23T18:15:55.760Z,98571.72
2022-08-23T18:18:58.230Z,98574.19
2022-08-23T18:22:02.496Z,98575.09
2022-08-23T18:25:08.744Z,98579.03
2022-08-23T18:28:11.619Z,98581.41
2022-08-23T18:31:14.989Z,98590.69
2022-08-23T18:34:17.692Z,98593.47
2022-08-23T18:37:21.700Z,98603.69
2022-08-23T18:40:25.078Z,98607.03
2022-08-23T18:43:27.280Z,98615.72
2022-08-23T18:46:42.191Z,98618.13
2022-08-23T18:49:44.321Z,98612.31
2022-08-23T18:52:46.425Z,98620.53
2022-08-23T18:55:50.067Z,98626.84
2022-08-23T18:58:52.496Z,98632.06
2022-08-23T19:01:55.236Z,98636.50
2022-08-23T19:04:57.534Z,98636.88
2022-08-23T19:07:59.633Z,98633.84
2022-08-23T19:11:01.710Z,98639.94
2022-08-23T19:14:05.200Z,98634.44
2022-08-23T19:17:10.267Z,98641.25
2022-08-23T19:20:12.390Z,98648.53
2022-08-23T19:23:14.505Z,98650.91
2022-08-23T19:26:18.082Z,98648.81
2022-08-23T19:29:21.722Z,98650.38
2022-08-23T19:32:24.007Z,98653.88
2022-08-23T19:35:26.166Z,98650.25
2022-08-23T19:38:29.230Z,98645.47
2022-08-23T19:41:32.093Z,98646.41
2022-08-23T19:44:35.320Z,98648.78
2022-08-23T19:47:37.631Z,98649.13
2022-08-23T19:50:40.180Z,98643.47
2022-08-23T19:53:42.483Z,98650.22
2022-08-23T19:56:48.981Z,98660.00
2022-08-23T19:59:51.076Z,98672.59
2022-08-23T20:02:53.278Z,98672.97
2022-08-23T20:05:56.116Z,98666.22
2022-08-23T20:08:58.582Z,98669.69
2022-08-23T20:12:07.752Z,98681.31
2022-08-23T20:15:12.070Z,98681.47
2022-08-23T20:18:15.268Z,98682.78
2022-08-23T20:21:23.459Z,98681.31
2022-08-23T20:24:48.719Z,98675.53
2022-08-23T20:27:48.756Z,98671.91
2022-08-23T20:30:50.888Z,98668.03
2022-08-23T20:33:53.114Z,98668.94
2022-08-23T20:36:56.300Z,98670.00
2022-08-23T20:39:58.859Z,98675.53
2022-08-23T20:43:01.479Z,98673.72
2022-08-23T20:46:04.077Z,98667.22
2022-08-23T20:49:06.402Z,98672.41
2022-08-23T20:52:08.542Z,98680.72
2022-08-23T20:55:11.255Z,98680.41
2022-08-23T20:58:13.326Z,98679.16
2022-08-23T21:01:16.442Z,98671.25
2022-08-23T21:04:18.800Z,98678.75
2022-08-23T21:07:21.603Z,98671.00
2022-08-23T21:10:24.110Z,98673.75
2022-08-23T21:13:26.314Z,98675.78
2022-08-23T21:16:28.502Z,98686.13
2022-08-23T21:19:31.303Z,98669.44
2022-08-23T21:22:33.459Z,98677.06
2022-08-23T21:25:35.681Z,98668.84
2022-08-23T21:28:37.771Z,98677.59
2022-08-23T21:31:40.033Z,98675.03
2022-08-23T21:34:42.164Z,98670.03
2022-08-23T21:37:44.344Z,98675.72
2022-08-23T21:40:46.505Z,98672.69
2022-08-23T21:43:48.583Z,98673.97
2022-08-23T21:46:50.667Z,98663.50
2022-08-23T21:49:53.338Z,98669.41
2022-08-23T21:53:04.752Z,98661.56
2022-08-23T21:56:07.484Z,98662.00
2022-08-23T21:59:11.485Z,98666.72
2022-08-23T22:02:13.771Z,98670.66
2022-08-23T22:05:15.965Z,98664.31
2022-08-23T22:08:18.078Z,98677.25
2022-08-23T22:11:23.621Z,98688.47
2022-08-23T22:14:27.452Z,98676.31
2022-08-23T22:17:33.822Z,98672.22
2022-08-23T22:20:36.245Z,98668.56
2022-08-23T22:23:43.305Z,98673.38
2022-08-23T22:26:45.813Z,98666.19
2022-08-23T22:29:47.918Z,98667.09
2022-08-23T22:32:50.015Z,98668.91
2022-08-23T22:35:52.827Z,98667.09
2022-08-23T22:38:55.318Z,98674.41
2022-08-23T22:41:57.412Z,98681.31
2022-08-23T22:45:00.207Z,98667.69
2022-08-23T22:48:02.529Z,98669.25
2022-08-23T22:51:14.323Z,98687.19
2022-08-23T22:54:16.439Z,98682.25
2022-08-23T22:57:18.507Z,98680.84
2022-08-23T23:00:20.754Z,98688.47
2022-08-23T23:03:22.874Z,98689.56
2022-08-23T23:06:25.715Z,98678.75
2022-08-23T23:09:27.967Z,98679.66
2022-08-23T23:12:31.444Z,98678.97
2022-08-23T23:15:33.547Z,98669.19
2022-08-23T23:18:35.895Z,98665.75
2022-08-23T23:21:41.532Z,98660.31
2022-08-23T23:24:43.650Z,98652.69
2022-08-23T23:27:45.830Z,98658.09
2022-08-23T23:30:51.145Z,98654.91
2022-08-23T23:33:53.438Z,98659.50
2022-08-23T23:36:59.015Z,98651.69
2022-08-23T23:40:01.169Z,98656.41
2022-08-23T23:43:03.621Z,98656.25
2022-08-23T23:46:11.021Z,98647.19
2022-08-23T23:49:13.156Z,98644.28
2022-08-23T23:52:16.174Z,98649.53
2022-08-23T23:55:19.890Z,98651.50
2022-08-23T23:58:21.970Z,98646.69
